Time;durP1;ratioP1;P1;durP2;ratioP2;P2;SDS_P1;SDS_P2;PMS_P1;PMS_P2;Temp;Humidity;BMP_temperature;BMP_pressure;BME280_temperature;BME280_humidity;BME280_pressure;Samples;Min_cycle;Max_cycle;Signal;HPM_P1;HPM_P2
2023/06/10 00:00:13;;;;;;;7.32;5.85;;;;;;;21.01;54.54;99065.78;346758;28;748;-78
2023/06/10 00:00:25;;;;;;;6.82;5.80;;;;;;;20.99;54.93;99073.00;346748;28;1161;-79
2023/06/10 00:00:37;;;;;;;6.43;5.73;;;;;;;21.02;54.16;99072.72;346038;28;1835;-78
2023/06/10 00:00:50;;;;;;;7.00;5.78;;;;;;;21.01;54.44;99065.78;346398;28;2003;-78
2023/06/10 00:01:03;;;;;;;7.00;5.80;;;;;;;20.98;54.93;99068.66;346889;28;1577;-78
2023/06/10 00:01:15;;;;;;;7.35;6.00;;;;;;;21.00;54.68;99068.53;348134;28;1069;-78
2023/06/10 00:01:30;;;;;;;6.80;5.75;;;;;;;21.00;54.48;99063.25;347756;28;1282;-78
2023/06/10 00:01:43;;;;;;;6.28;5.47;;;;;;;21.00;53.91;99069.38;346717;28;1097;-78
2023/06/10 00:01:59;;;;;;;6.38;5.63;;;;;;;21.01;53.82;99071.06;346247;28;1541;-78
2023/06/10 00:02:11;;;;;;;6.28;5.53;;;;;;;20.95;54.80;99066.31;346657;28;1248;-78
2023/06/10 00:02:23;;;;;;;12.48;5.60;;;;;;;20.95;54.28;99068.94;346382;28;1226;-78
2023/06/10 00:02:35;;;;;;;12.60;5.50;;;;;;;20.95;54.25;99067.13;345587;28;1679;-78
2023/06/10 00:02:50;;;;;;;9.35;5.47;;;;;;;20.96;54.09;99067.97;345974;28;2075;-78
2023/06/10 00:03:03;;;;;;;7.40;5.60;;;;;;;20.90;54.77;99068.47;345967;28;1070;-78
2023/06/10 00:03:15;;;;;;;7.15;5.68;;;;;;;20.90;54.64;99060.56;344883;28;1039;-78
2023/06/10 00:03:28;;;;;;;8.45;5.95;;;;;;;20.89;54.90;99069.47;345051;28;1097;-78
2023/06/10 00:03:41;;;;;;;7.97;5.70;;;;;;;20.90;54.39;99068.47;344952;28;1152;-78
2023/06/10 00:03:53;;;;;;;8.25;5.63;;;;;;;20.90;54.04;99068.47;344620;28;1386;-78
2023/06/10 00:04:06;;;;;;;7.22;5.53;;;;;;;20.91;54.08;99064.88;344512;28;1329;-78
2023/06/10 00:04:18;;;;;;;6.60;5.60;;;;;;;20.91;54.04;99064.88;343990;28;1362;-78
2023/06/10 00:04:30;;;;;;;6.30;5.40;;;;;;;20.90;53.87;99063.19;343652;28;1752;-78
2023/06/10 00:04:43;;;;;;;6.05;5.35;;;;;;;20.90;53.90;99058.75;345026;28;1924;-78
2023/06/10 00:04:55;;;;;;;6.40;5.40;;;;;;;20.89;53.89;99061.53;344181;28;1671;-77
2023/06/10 00:05:08;;;;;;;6.78;5.70;;;;;;;20.87;53.98;99068.75;344972;28;1201;-78
2023/06/10 00:05:21;;;;;;;6.40;5.60;;;;;;;20.85;54.04;99060.94;345574;28;1663;-78
2023/06/10 00:05:34;;;;;;;6.05;5.45;;;;;;;20.86;53.58;99067.06;345281;28;1165;-79
2023/06/10 00:05:46;;;;;;;6.47;5.30;;;;;;;20.84;53.80;99071.66;346590;28;1313;-78
2023/06/10 00:05:58;;;;;;;7.05;5.40;;;;;;;20.84;53.62;99063.72;345426;28;1461;-78
2023/06/10 00:06:10;;;;;;;6.28;5.30;;;;;;;20.83;53.92;99062.06;346380;28;1051;-78
2023/06/10 00:06:24;;;;;;;6.03;5.32;;;;;;;20.81;53.76;99064.81;346161;28;1798;-78
2023/06/10 00:06:36;;;;;;;7.57;5.40;;;;;;;20.79;54.00;99063.28;346439;28;1175;-78
2023/06/10 00:06:49;;;;;;;8.23;5.70;;;;;;;20.77;54.08;99063.41;345899;28;1665;-78
2023/06/10 00:07:03;;;;;;;8.00;5.88;;;;;;;20.72;55.01;99063.78;344819;28;1102;-78
2023/06/10 00:07:15;;;;;;;6.15;5.55;;;;;;;20.74;54.60;99067.16;344987;28;1055;-78
2023/06/10 00:07:27;;;;;;;5.80;5.20;;;;;;;20.74;54.35;99064.50;343625;28;1189;-78
2023/06/10 00:07:40;;;;;;;6.68;5.30;;;;;;;20.75;54.34;99067.97;343801;28;1174;-78
2023/06/10 00:07:55;;;;;;;7.47;5.50;;;;;;;20.74;54.56;99064.50;343162;28;1502;-78
2023/06/10 00:08:08;;;;;;;6.35;5.40;;;;;;;20.74;54.39;99069.78;343528;28;2033;-78
2023/06/10 00:08:20;;;;;;;7.93;5.72;;;;;;;20.73;54.52;99065.47;343733;28;1611;-78
2023/06/10 00:08:33;;;;;;;8.23;5.90;;;;;;;20.74;54.30;99064.50;343725;28;1051;-78
2023/06/10 00:08:47;;;;;;;7.18;5.72;;;;;;;20.73;54.39;99068.09;343629;28;1480;-78
2023/06/10 00:09:00;;;;;;;6.38;5.53;;;;;;;20.73;54.30;99062.81;344474;28;1586;-78
2023/06/10 00:09:13;;;;;;;7.13;5.60;;;;;;;20.71;54.08;99062.13;345467;28;1592;-78
2023/06/10 00:09:26;;;;;;;7.28;5.65;;;;;;;20.71;54.32;99063.94;346301;28;1066;-78
2023/06/10 00:09:38;;;;;;;6.95;5.60;;;;;;;20.69;54.07;99066.69;344889;28;1446;-78
2023/06/10 00:09:51;;;;;;;6.50;5.85;;;;;;;20.68;54.03;99059.72;346227;28;1137;-78
2023/06/10 00:10:05;;;;;;;6.63;5.93;;;;;;;20.67;54.16;99071.25;344794;28;1652;-78
2023/06/10 00:10:17;;;;;;;6.53;5.70;;;;;;;20.66;54.42;99066.94;343887;28;1079;-78
2023/06/10 00:10:29;;;;;;;6.70;5.43;;;;;;;20.64;54.25;99062.75;343644;28;1067;-78
2023/06/10 00:10:42;;;;;;;7.20;5.50;;;;;;;20.60;54.12;99062.16;343988;28;1002;-77
2023/06/10 00:10:54;;;;;;;7.72;5.53;;;;;;;20.58;55.11;99068.53;344199;28;1183;-78
2023/06/10 00:11:06;;;;;;;8.32;5.60;;;;;;;20.55;55.34;99069.63;343671;28;1149;-78
2023/06/10 00:11:18;;;;;;;8.63;5.63;;;;;;;20.51;56.04;99069.03;344336;28;1588;-78
2023/06/10 00:11:31;;;;;;;8.27;5.90;;;;;;;20.47;56.00;99066.78;345270;28;740;-77
2023/06/10 00:11:44;;;;;;;6.97;6.00;;;;;;;20.45;55.75;99071.34;345285;28;1970;-78
2023/06/10 00:11:59;;;;;;;7.57;5.97;;;;;;;20.42;55.63;99068.94;345014;28;1228;-78
2023/06/10 00:12:11;;;;;;;9.02;6.00;;;;;;;20.45;55.73;99071.34;345820;28;1075;-78
2023/06/10 00:12:23;;;;;;;8.07;5.72;;;;;;;20.46;55.33;99071.19;345622;28;1092;-78
2023/06/10 00:12:37;;;;;;;8.45;5.60;;;;;;;20.49;55.42;99064.84;345468;28;1565;-78
2023/06/10 00:12:51;;;;;;;7.40;5.50;;;;;;;20.49;55.12;99065.69;346501;28;1473;-78
2023/06/10 00:13:11;;;;;;;6.40;5.45;;;;;;;20.50;54.89;99062.09;346529;28;1041;-78
2023/06/10 00:13:22;;;;;;;6.00;5.40;;;;;;;20.51;54.86;99062.91;346351;28;1594;-78
2023/06/10 00:13:35;;;;;;;6.00;5.40;;;;;;;20.50;55.01;99055.94;345702;28;1516;-78
2023/06/10 00:13:50;;;;;;;6.57;5.40;;;;;;;20.51;54.78;99069.03;345114;28;932;-78
2023/06/10 00:14:02;;;;;;;7.45;5.35;;;;;;;20.51;54.55;99068.19;345990;28;1138;-78
2023/06/10 00:14:14;;;;;;;7.18;5.53;;;;;;;20.52;54.64;99067.22;346766;28;1109;-78
2023/06/10 00:14:26;;;;;;;6.75;5.63;;;;;;;20.52;54.70;99069.84;345817;28;1803;-77
2023/06/10 00:14:40;;;;;;;6.07;5.47;;;;;;;20.49;54.62;99065.69;345037;28;1177;-77
2023/06/10 00:14:53;;;;;;;6.88;5.80;;;;;;;20.49;54.77;99070.13;345100;28;1627;-78
2023/06/10 00:15:06;;;;;;;7.07;5.72;;;;;;;20.49;54.63;99065.69;344824;28;1130;-78
2023/06/10 00:15:19;;;;;;;6.18;5.43;;;;;;;20.47;54.67;99066.78;344368;28;1701;-78
2023/06/10 00:15:31;;;;;;;6.15;5.47;;;;;;;20.46;54.57;99071.19;343780;28;1186;-78
2023/06/10 00:15:43;;;;;;;6.45;5.53;;;;;;;20.47;54.59;99069.44;344799;28;1128;-78
2023/06/10 00:15:55;;;;;;;6.65;5.47;;;;;;;20.46;54.73;99073.00;344394;28;1842;-78
2023/06/10 00:16:07;;;;;;;6.38;5.40;;;;;;;20.43;54.92;99068.00;345206;28;1238;-78
2023/06/10 00:16:19;;;;;;;6.03;5.43;;;;;;;20.37;55.25;99071.97;344838;28;1796;-78
2023/06/10 00:16:31;;;;;;;6.75;5.55;;;;;;;20.36;54.90;99075.56;343631;28;1324;-78
2023/06/10 00:16:44;;;;;;;7.43;5.78;;;;;;;20.35;54.60;99064.19;344365;28;1099;-78
2023/06/10 00:16:57;;;;;;;6.60;5.88;;;;;;;20.34;54.69;99067.81;345156;28;1097;-78
2023/06/10 00:17:09;;;;;;;7.57;5.95;;;;;;;20.34;54.56;99061.66;344899;28;1123;-78
2023/06/10 00:17:23;;;;;;;7.72;5.95;;;;;;;20.32;54.52;99069.72;344946;28;1082;-78
2023/06/10 00:17:38;;;;;;;8.05;5.90;;;;;;;20.26;55.12;99075.50;345207;28;1866;-78
2023/06/10 00:17:54;;;;;;;7.22;5.90;;;;;;;20.26;55.13;99069.38;345873;28;1521;-78
2023/06/10 00:18:09;;;;;;;7.10;5.85;;;;;;;20.26;54.84;99067.59;345991;28;1513;-78
2023/06/10 00:18:22;;;;;;;6.95;5.80;;;;;;;20.26;55.32;99062.31;347588;28;1220;-78
2023/06/10 00:18:36;;;;;;;7.30;5.90;;;;;;;20.26;55.63;99070.25;346426;28;1791;-78
2023/06/10 00:18:51;;;;;;;7.30;5.80;;;;;;;20.26;55.45;99064.97;346310;28;1239;-78
2023/06/10 00:19:03;;;;;;;6.85;5.72;;;;;;;20.29;55.20;99069.97;346486;28;1925;-78
2023/06/10 00:19:16;;;;;;;7.45;5.80;;;;;;;20.31;55.17;99068.03;345478;28;1349;-78
2023/06/10 00:19:30;;;;;;;7.75;6.20;;;;;;;20.32;55.18;99063.59;345707;28;1783;-78
2023/06/10 00:19:43;;;;;;;6.80;5.90;;;;;;;20.34;54.67;99067.81;345671;28;1058;-78
2023/06/10 00:19:55;;;;;;;7.15;5.72;;;;;;;20.31;54.53;99070.69;346673;28;1049;-78
2023/06/10 00:20:11;;;;;;;7.88;5.82;;;;;;;20.33;54.64;99070.56;346641;28;1041;-78
2023/06/10 00:20:25;;;;;;;7.28;6.00;;;;;;;20.32;54.40;99068.88;346150;28;1674;-78
2023/06/10 00:20:38;;;;;;;6.68;5.97;;;;;;;20.31;54.51;99068.03;346644;28;1232;-78
2023/06/10 00:20:52;;;;;;;6.78;6.05;;;;;;;20.30;54.37;99068.16;346056;28;1695;-78
2023/06/10 00:21:05;;;;;;;8.40;5.93;;;;;;;20.28;54.63;99068.31;345372;28;1051;-78
2023/06/10 00:21:18;;;;;;;9.38;6.07;;;;;;;20.21;55.10;99064.47;345250;28;1598;-78
2023/06/10 00:21:37;;;;;;;8.82;6.20;;;;;;;20.20;55.33;99072.53;345404;28;1078;-78
2023/06/10 00:21:51;;;;;;;7.05;6.20;;;;;;;20.12;55.54;99063.44;346562;28;1216;-77
2023/06/10 00:22:03;;;;;;;7.85;6.03;;;;;;;20.15;55.30;99068.47;345027;28;1530;-78
2023/06/10 00:22:15;;;;;;;8.25;6.25;;;;;;;20.14;55.33;99073.84;344944;28;1050;-78
2023/06/10 00:22:29;;;;;;;7.85;6.35;;;;;;;20.14;55.24;99071.22;345118;28;1568;-78
2023/06/10 00:22:45;;;;;;;7.38;6.15;;;;;;;20.12;55.26;99073.13;345204;28;967;-78
2023/06/10 00:23:00;;;;;;;7.25;6.30;;;;;;;20.10;55.26;99067.16;345988;28;1430;-78
2023/06/10 00:23:13;;;;;;;7.82;6.45;;;;;;;20.09;55.26;99068.13;346301;28;1030;-78
2023/06/10 00:23:25;;;;;;;7.95;6.25;;;;;;;20.07;55.20;99064.78;346271;28;1274;-78
2023/06/10 00:23:37;;;;;;;8.02;6.10;;;;;;;20.05;55.55;99075.44;346074;28;1368;-78
2023/06/10 00:23:49;;;;;;;7.80;6.20;;;;;;;20.03;56.05;99068.63;345206;28;1330;-78
2023/06/10 00:24:05;;;;;;;6.93;6.00;;;;;;;19.97;56.65;99069.13;344412;28;1272;-78
2023/06/10 00:24:16;;;;;;;7.00;6.10;;;;;;;19.89;57.56;99078.47;344807;28;1840;-78
2023/06/10 00:24:29;;;;;;;7.15;6.15;;;;;;;19.89;56.61;99073.22;343335;28;1769;-78
2023/06/10 00:24:41;;;;;;;6.45;5.72;;;;;;;19.89;56.78;99067.94;343476;28;1234;-78
2023/06/10 00:24:53;;;;;;;7.13;6.10;;;;;;;19.87;56.72;99072.50;343638;28;1072;-78
2023/06/10 00:25:06;;;;;;;7.18;6.25;;;;;;;19.87;56.58;99069.03;343299;28;1710;-78
2023/06/10 00:25:19;;;;;;;7.03;6.15;;;;;;;19.81;57.01;99070.34;343400;28;1120;-78
2023/06/10 00:25:34;;;;;;;7.63;6.30;;;;;;;19.76;57.52;99067.25;343673;28;1032;-78
2023/06/10 00:25:46;;;;;;;9.38;6.30;;;;;;;19.68;58.35;99075.75;344283;28;1587;-78
2023/06/10 00:25:59;;;;;;;8.73;6.20;;;;;;;19.68;58.37;99064.34;344967;28;948;-78
2023/06/10 00:26:11;;;;;;;7.50;6.40;;;;;;;19.66;58.52;99068.91;344628;28;1061;-78
2023/06/10 00:26:23;;;;;;;8.07;6.43;;;;;;;19.67;58.48;99073.22;343564;28;1191;-78
2023/06/10 00:26:35;;;;;;;7.82;6.25;;;;;;;19.66;58.28;99067.13;344677;28;1063;-78
2023/06/10 00:26:47;;;;;;;7.85;6.32;;;;;;;19.61;58.73;99073.72;344668;28;1115;-78
2023/06/10 00:26:59;;;;;;;7.97;6.40;;;;;;;19.62;58.23;99070.97;345280;28;2705;-78
2023/06/10 00:27:11;;;;;;;9.02;6.55;;;;;;;19.62;58.20;99070.97;345002;28;1675;-78
2023/06/10 00:27:24;;;;;;;9.73;6.60;;;;;;;19.59;58.53;99075.63;344880;28;1528;-78
2023/06/10 00:27:36;;;;;;;9.63;6.80;;;;;;;19.62;58.18;99070.97;343676;28;1429;-78
2023/06/10 00:27:48;;;;;;;7.78;6.57;;;;;;;19.55;58.42;99069.75;343996;28;1251;-77
2023/06/10 00:28:03;;;;;;;9.07;6.40;;;;;;;19.48;58.67;99077.31;346300;28;1465;-77
2023/06/10 00:28:15;;;;;;;10.63;6.28;;;;;;;19.46;58.99;99065.22;346309;28;1189;-77
2023/06/10 00:28:27;;;;;;;10.82;6.40;;;;;;;19.41;59.11;99073.47;345279;28;2122;-77
2023/06/10 00:28:38;;;;;;;10.52;6.32;;;;;;;19.43;59.60;99071.56;345710;28;1267;-78
2023/06/10 00:28:52;;;;;;;10.95;6.28;;;;;;;19.47;58.86;99067.72;344494;28;1719;-78
2023/06/10 00:29:04;;;;;;;8.95;6.05;;;;;;;19.52;58.66;99072.66;344984;28;1079;-78
2023/06/10 00:29:16;;;;;;;7.63;6.10;;;;;;;19.57;58.47;99070.47;344913;28;1015;-78
2023/06/10 00:29:28;;;;;;;7.93;6.40;;;;;;;19.58;58.36;99068.66;344614;28;1536;-78
2023/06/10 00:29:40;;;;;;;9.02;6.45;;;;;;;19.59;58.27;99071.19;345431;28;1723;-78
2023/06/10 00:29:52;;;;;;;8.85;6.30;;;;;;;19.60;57.95;99078.16;346357;28;1588;-78
2023/06/10 00:30:06;;;;;;;8.40;6.20;;;;;;;19.58;58.49;99079.22;346331;28;1151;-78
2023/06/10 00:30:18;;;;;;;6.72;5.90;;;;;;;19.45;58.65;99074.91;346392;28;1163;-78
2023/06/10 00:30:30;;;;;;;6.85;6.15;;;;;;;19.41;58.99;99076.13;344634;28;1087;-78
2023/06/10 00:30:42;;;;;;;7.50;6.60;;;;;;;19.43;58.95;99074.19;344826;28;1534;-78
2023/06/10 00:30:54;;;;;;;7.45;6.65;;;;;;;19.45;58.58;99074.91;344894;28;1847;-78
2023/06/10 00:31:06;;;;;;;7.00;6.30;;;;;;;19.47;58.41;99078.25;346270;28;1301;-78
2023/06/10 00:31:18;;;;;;;7.47;6.03;;;;;;;19.49;58.27;99073.72;343735;28;1084;-78
2023/06/10 00:31:30;;;;;;;7.95;6.00;;;;;;;19.51;58.22;99073.59;344607;28;1140;-78
2023/06/10 00:31:44;;;;;;;8.25;6.00;;;;;;;19.52;58.17;99076.13;344800;28;1398;-78
2023/06/10 00:31:57;;;;;;;6.82;5.97;;;;;;;19.50;58.27;99072.75;344019;28;1802;-78
2023/06/10 00:32:09;;;;;;;6.55;5.90;;;;;;;19.44;58.35;99078.53;343581;28;1163;-78
2023/06/10 00:32:21;;;;;;;6.57;5.97;;;;;;;19.35;58.85;99068.69;344065;28;1552;-78
2023/06/10 00:32:34;;;;;;;7.05;6.35;;;;;;;19.29;59.52;99080.53;344763;28;1185;-78
2023/06/10 00:32:46;;;;;;;7.00;6.30;;;;;;;19.31;59.70;99075.16;346079;28;1076;-78
2023/06/10 00:32:59;;;;;;;7.43;6.60;;;;;;;19.33;59.54;99073.25;345160;28;1059;-78
2023/06/10 00:33:11;;;;;;;7.75;6.53;;;;;;;19.36;59.28;99073.84;345226;28;1151;-78
2023/06/10 00:33:23;;;;;;;8.27;6.30;;;;;;;19.41;58.87;99078.75;346302;28;1339;-78
2023/06/10 00:33:36;;;;;;;6.82;5.65;;;;;;;19.43;58.95;99076.84;346140;28;1149;-78
2023/06/10 00:33:48;;;;;;;6.65;5.90;;;;;;;19.46;58.56;99073.13;344834;28;1231;-78
2023/06/10 00:34:02;;;;;;;6.57;5.97;;;;;;;19.47;58.60;99075.63;344880;28;1701;-78
2023/06/10 00:34:14;;;;;;;6.75;6.05;;;;;;;19.46;58.49;99081.03;345733;28;1389;-78
2023/06/10 00:34:26;;;;;;;6.88;6.18;;;;;;;19.44;58.52;99073.25;344856;28;1380;-78
2023/06/10 00:34:38;;;;;;;7.60;6.28;;;;;;;19.45;58.41;99069.66;345022;28;1075;-77
2023/06/10 00:34:50;;;;;;;9.75;6.00;;;;;;;19.47;58.44;99070.34;345287;28;1996;-77
2023/06/10 00:35:03;;;;;;;10.93;6.13;;;;;;;19.47;58.26;99075.63;344696;28;1210;-77
2023/06/10 00:35:15;;;;;;;7.53;6.15;;;;;;;19.44;58.58;99073.25;343562;28;1071;-77
2023/06/10 00:35:27;;;;;;;6.93;6.22;;;;;;;19.44;58.49;99072.41;344343;28;2810;-77
2023/06/10 00:35:39;;;;;;;7.63;6.30;;;;;;;19.45;58.50;99080.19;345007;28;1230;-78
2023/06/10 00:35:52;;;;;;;7.38;5.90;;;;;;;19.37;59.09;99069.41;343810;28;1854;-78
2023/06/10 00:36:04;;;;;;;7.35;6.00;;;;;;;19.39;58.97;99079.84;345066;28;1675;-78
2023/06/10 00:36:16;;;;;;;7.70;6.22;;;;;;;19.40;58.88;99076.22;346235;28;1050;-78
2023/06/10 00:36:28;;;;;;;7.88;6.40;;;;;;;19.40;58.69;99077.09;346184;28;1050;-78
2023/06/10 00:36:40;;;;;;;8.35;6.40;;;;;;;19.40;58.72;99071.81;345868;28;1141;-78
2023/06/10 00:36:52;;;;;;;8.23;6.43;;;;;;;19.41;58.31;99073.47;345771;28;1398;-78
2023/06/10 00:37:04;;;;;;;7.72;6.25;;;;;;;19.41;58.54;99073.47;346197;28;1728;-77
2023/06/10 00:37:16;;;;;;;7.13;6.10;;;;;;;19.42;58.42;99074.31;346316;28;1180;-77
2023/06/10 00:37:29;;;;;;;6.78;6.07;;;;;;;19.42;58.31;99069.03;346420;28;1097;-77
2023/06/10 00:37:41;;;;;;;6.85;6.15;;;;;;;19.41;58.20;99073.47;346336;28;1914;-78
2023/06/10 00:37:53;;;;;;;6.90;6.15;;;;;;;19.40;58.24;99074.44;346360;28;1047;-78
2023/06/10 00:38:05;;;;;;;7.32;6.10;;;;;;;19.40;58.35;99071.81;346300;28;1468;-78
2023/06/10 00:38:17;;;;;;;7.50;6.15;;;;;;;19.40;58.75;99077.09;346707;28;1194;-78
2023/06/10 00:38:29;;;;;;;6.53;5.80;;;;;;;19.39;58.33;99074.56;346587;28;1057;-77
2023/06/10 00:38:41;;;;;;;6.28;5.65;;;;;;;19.39;58.44;99072.75;345272;28;1211;-77
2023/06/10 00:38:53;;;;;;;6.30;5.70;;;;;;;19.37;58.45;99072.03;345661;28;1902;-77
2023/06/10 00:39:05;;;;;;;6.65;5.95;;;;;;;19.36;58.32;99071.22;344858;28;1756;-77
2023/06/10 00:39:17;;;;;;;7.55;6.32;;;;;;;19.37;58.22;99082.59;346130;28;1254;-77
2023/06/10 00:39:29;;;;;;;6.90;6.15;;;;;;;19.35;58.36;99071.31;345818;28;1197;-77
2023/06/10 00:39:41;;;;;;;6.70;6.00;;;;;;;19.35;58.51;99068.69;343937;28;1482;-78
2023/06/10 00:39:53;;;;;;;6.80;6.18;;;;;;;19.34;58.47;99077.56;344087;28;1543;-78
2023/06/10 00:40:06;;;;;;;6.70;6.00;;;;;;;19.32;58.55;99071.59;343514;28;1035;-78
2023/06/10 00:40:18;;;;;;;7.53;6.00;;;;;;;19.32;58.47;99074.22;344826;28;1991;-78
2023/06/10 00:40:30;;;;;;;7.95;5.88;;;;;;;19.29;58.45;99069.16;344911;28;1242;-78
2023/06/10 00:40:42;;;;;;;8.25;6.10;;;;;;;19.26;58.60;99072.06;344853;28;985;-77
2023/06/10 00:40:54;;;;;;;7.53;6.28;;;;;;;19.19;59.65;99070.84;345178;28;1043;-77
2023/06/10 00:41:06;;;;;;;8.05;6.35;;;;;;;19.17;59.64;99076.22;345000;28;1153;-77
2023/06/10 00:41:18;;;;;;;8.77;6.57;;;;;;;19.16;59.35;99072.75;345401;28;1394;-77
2023/06/10 00:41:31;;;;;;;8.63;6.45;;;;;;;19.17;59.23;99076.22;346235;28;1086;-77
2023/06/10 00:41:43;;;;;;;7.60;6.13;;;;;;;19.15;58.98;99068.44;346080;28;1599;-77
2023/06/10 00:41:55;;;;;;;6.68;5.78;;;;;;;19.17;58.99;99068.31;345057;28;1430;-77
2023/06/10 00:42:07;;;;;;;6.03;5.43;;;;;;;19.16;58.93;99069.31;346540;28;1049;-78
2023/06/10 00:42:19;;;;;;;6.15;5.55;;;;;;;19.15;58.83;99068.44;344968;28;1470;-78
2023/06/10 00:42:31;;;;;;;7.90;5.75;;;;;;;19.14;58.83;99064.13;346375;28;1086;-78
2023/06/10 00:42:43;;;;;;;8.60;6.00;;;;;;;19.13;58.84;99070.34;346804;28;1179;-78
2023/06/10 00:42:55;;;;;;;7.50;6.13;;;;;;;19.12;58.86;99068.69;345727;28;1805;-78
2023/06/10 00:43:07;;;;;;;7.03;6.07;;;;;;;19.12;58.82;99071.31;345154;28;1165;-78
2023/06/10 00:43:19;;;;;;;9.13;6.05;;;;;;;19.11;59.06;99069.63;346365;28;1832;-78
2023/06/10 00:43:34;;;;;;;10.35;6.20;;;;;;;19.07;59.50;99070.81;346679;28;1200;-78
2023/06/10 00:43:46;;;;;;;8.93;6.13;;;;;;;19.05;60.27;99074.53;344947;28;1072;-78
2023/06/10 00:43:58;;;;;;;7.93;6.10;;;;;;;19.00;60.14;99074.91;344269;28;1549;-77
2023/06/10 00:44:10;;;;;;;7.97;6.28;;;;;;;18.98;59.74;99071.56;343662;28;1382;-77
2023/06/10 00:44:22;;;;;;;6.95;6.07;;;;;;;18.96;60.13;99069.03;343480;28;1386;-77
2023/06/10 00:44:37;;;;;;;6.88;5.85;;;;;;;19.00;59.89;99063.53;343351;28;1077;-77
2023/06/10 00:44:50;;;;;;;6.72;6.03;;;;;;;19.00;59.94;99074.91;342243;28;1072;-78
2023/06/10 00:45:03;;;;;;;6.88;6.05;;;;;;;19.02;59.92;99073.00;340650;28;1101;-78
2023/06/10 00:45:15;;;;;;;7.63;6.15;;;;;;;19.04;59.65;99076.34;342549;28;1051;-78
2023/06/10 00:45:27;;;;;;;8.13;6.30;;;;;;;19.06;59.67;99069.16;342326;28;1078;-78
2023/06/10 00:45:39;;;;;;;8.23;6.20;;;;;;;19.04;60.74;99071.06;343293;28;1601;-78
2023/06/10 00:45:51;;;;;;;9.77;6.18;;;;;;;19.04;60.63;99071.06;343759;28;1079;-78
2023/06/10 00:46:04;;;;;;;9.90;6.13;;;;;;;19.04;60.63;99071.06;343647;28;1642;-78
2023/06/10 00:46:16;;;;;;;9.68;6.25;;;;;;;19.06;60.82;99069.16;343533;28;1191;-78
2023/06/10 00:46:31;;;;;;;7.40;6.13;;;;;;;19.07;60.83;99065.56;344241;28;1809;-78
2023/06/10 00:46:44;;;;;;;7.53;6.00;;;;;;;19.10;60.42;99070.59;345100;28;1646;-77
2023/06/10 00:46:56;;;;;;;7.05;5.88;;;;;;;19.12;60.25;99067.84;344726;28;1817;-78
2023/06/10 00:47:08;;;;;;;7.10;6.07;;;;;;;19.13;60.61;99069.53;344704;28;1999;-78
2023/06/10 00:47:20;;;;;;;7.05;6.28;;;;;;;19.13;60.55;99065.09;343530;28;1178;-77
2023/06/10 00:47:32;;;;;;;7.72;6.50;;;;;;;19.17;60.11;99078.88;343469;28;1190;-77
2023/06/10 00:47:44;;;;;;;7.68;6.38;;;;;;;19.16;60.34;99072.75;343298;28;1387;-77
2023/06/10 00:47:56;;;;;;;7.85;6.10;;;;;;;19.15;60.63;99073.72;342031;28;1832;-77
2023/06/10 00:48:09;;;;;;;7.80;6.20;;;;;;;19.18;60.13;99072.66;342240;28;1407;-77
2023/06/10 00:48:21;;;;;;;7.47;6.40;;;;;;;19.21;59.80;99076.84;342209;28;1199;-77
2023/06/10 00:48:34;;;;;;;7.03;6.28;;;;;;;19.21;59.68;99072.41;342210;28;1074;-77
2023/06/10 00:48:46;;;;;;;7.65;6.18;;;;;;;19.22;59.54;99074.09;342015;28;1561;-77
2023/06/10 00:48:58;;;;;;;8.68;6.25;;;;;;;19.21;60.07;99072.41;342173;28;1571;-77
2023/06/10 00:49:11;;;;;;;8.85;6.32;;;;;;;19.23;60.11;99072.28;343241;28;1621;-78
2023/06/10 00:49:23;;;;;;;8.98;6.30;;;;;;;19.24;59.63;99072.19;344068;28;1157;-77
2023/06/10 00:49:35;;;;;;;7.15;5.95;;;;;;;19.26;59.35;99069.44;344917;28;1026;-77
2023/06/10 00:49:49;;;;;;;7.25;5.97;;;;;;;19.26;60.04;99075.53;346219;28;1494;-78
2023/06/10 00:50:02;;;;;;;7.88;6.25;;;;;;;19.26;59.80;99072.06;347718;28;1493;-78
2023/06/10 00:50:14;;;;;;;8.38;6.63;;;;;;;19.25;59.54;99073.00;347827;28;1174;-78
2023/06/10 00:50:27;;;;;;;7.80;6.50;;;;;;;19.26;59.09;99079.97;347914;28;1126;-77
2023/06/10 00:50:39;;;;;;;7.05;6.03;;;;;;;19.24;59.43;99076.63;345691;28;1789;-78
2023/06/10 00:50:51;;;;;;;6.55;5.78;;;;;;;19.24;59.34;99076.63;345497;28;1066;-78
2023/06/10 00:51:05;;;;;;;7.15;5.90;;;;;;;19.23;59.40;99074.91;346659;28;1233;-78
2023/06/10 00:51:18;;;;;;;7.63;6.07;;;;;;;19.23;59.49;99069.66;346826;28;1240;-78
2023/06/10 00:51:30;;;;;;;7.80;6.00;;;;;;;19.23;59.75;99073.13;346650;28;1159;-78
2023/06/10 00:51:42;;;;;;;7.53;6.05;;;;;;;19.25;59.50;99073.00;346084;28;1258;-78
2023/06/10 00:51:54;;;;;;;6.88;6.15;;;;;;;19.29;59.16;99069.16;345151;28;2105;-78
2023/06/10 00:52:07;;;;;;;7.13;6.22;;;;;;;19.30;58.89;99073.50;344783;28;1221;-78
2023/06/10 00:52:22;;;;;;;8.05;6.32;;;;;;;19.32;58.51;99068.94;345040;28;1151;-78
2023/06/10 00:52:35;;;;;;;7.95;6.32;;;;;;;19.31;58.56;99072.53;344796;28;811;-78
2023/06/10 00:52:48;;;;;;;6.63;5.78;;;;;;;19.31;58.33;99069.88;342312;28;1281;-78
2023/06/10 00:53:01;;;;;;;6.85;5.85;;;;;;;19.29;58.46;99069.16;342955;28;1733;-78
2023/06/10 00:53:13;;;;;;;7.22;6.30;;;;;;;19.28;58.58;99073.59;342397;28;1100;-77
2023/06/10 00:53:26;;;;;;;7.57;6.60;;;;;;;19.28;58.44;99070.16;342406;28;1201;-77
2023/06/10 00:53:40;;;;;;;8.20;6.60;;;;;;;19.27;58.51;99076.34;343015;28;1194;-77
2023/06/10 00:53:53;;;;;;;8.68;6.53;;;;;;;19.27;58.49;99076.34;344452;28;1505;-77
2023/06/10 00:54:05;;;;;;;8.43;6.45;;;;;;;19.27;58.63;99076.34;344383;28;1156;-77
2023/06/10 00:54:18;;;;;;;7.03;6.32;;;;;;;19.28;58.82;99078.06;344929;28;1417;-78
2023/06/10 00:54:30;;;;;;;6.97;6.28;;;;;;;19.26;59.13;99074.69;345329;28;901;-78
2023/06/10 00:54:43;;;;;;;7.30;6.47;;;;;;;19.25;58.98;99073.00;346036;28;1222;-78
2023/06/10 00:54:55;;;;;;;7.13;6.40;;;;;;;19.19;60.00;99071.69;346095;28;1454;-78
2023/06/10 00:55:08;;;;;;;7.18;6.18;;;;;;;19.22;59.26;99073.25;344884;28;1079;-78
2023/06/10 00:55:20;;;;;;;7.40;6.00;;;;;;;19.22;59.60;99074.09;345839;28;1494;-78
2023/06/10 00:55:33;;;;;;;6.90;5.80;;;;;;;19.24;59.29;99071.34;346516;28;1068;-78
2023/06/10 00:55:45;;;;;;;7.13;6.00;;;;;;;19.25;59.02;99078.28;346484;28;1190;-78
2023/06/10 00:55:57;;;;;;;7.28;5.90;;;;;;;19.24;59.74;99076.63;346301;28;1330;-78
2023/06/10 00:56:10;;;;;;;7.68;5.90;;;;;;;19.25;59.28;99073.00;346468;28;1330;-78
2023/06/10 00:56:22;;;;;;;7.35;6.13;;;;;;;19.26;59.16;99077.34;345979;28;1878;-78
2023/06/10 00:56:35;;;;;;;7.50;6.20;;;;;;;19.20;59.44;99081.28;345136;28;1066;-78
2023/06/10 00:56:48;;;;;;;6.90;6.20;;;;;;;19.17;59.56;99070.97;344688;28;1569;-78
2023/06/10 00:57:01;;;;;;;7.00;6.30;;;;;;;19.16;59.70;99071.94;343568;28;1161;-78
2023/06/10 00:57:13;;;;;;;6.88;6.18;;;;;;;19.14;59.68;99081.75;343802;28;1143;-78
2023/06/10 00:57:26;;;;;;;6.70;6.00;;;;;;;19.17;59.48;99070.97;342342;28;1051;-78
2023/06/10 00:57:38;;;;;;;6.95;6.13;;;;;;;19.19;59.41;99079.59;341021;28;1104;-78
2023/06/10 00:57:51;;;;;;;6.95;6.10;;;;;;;19.18;59.52;99072.66;339630;29;1241;-78
2023/06/10 00:58:04;;;;;;;8.10;5.80;;;;;;;19.19;59.38;99076.13;340565;29;1294;-78
2023/06/10 00:58:16;;;;;;;7.63;5.60;;;;;;;19.15;59.87;99073.72;340829;29;1438;-78
2023/06/10 00:58:28;;;;;;;8.07;5.93;;;;;;;19.16;59.13;99075.41;338524;29;1212;-78
2023/06/10 00:58:40;;;;;;;8.48;6.05;;;;;;;19.18;59.19;99069.19;340239;28;1181;-78
2023/06/10 00:58:52;;;;;;;6.60;5.90;;;;;;;19.20;59.13;99080.44;339576;29;1843;-78
2023/06/10 00:59:04;;;;;;;6.70;5.72;;;;;;;19.15;59.57;99073.72;339717;29;1493;-78
2023/06/10 00:59:16;;;;;;;6.78;6.03;;;;;;;19.12;59.91;99079.22;338975;29;1661;-78
2023/06/10 00:59:29;;;;;;;7.30;6.20;;;;;;;19.06;60.33;99074.44;340238;28;1673;-78
2023/06/10 00:59:47;;;;;;;7.10;6.07;;;;;;;19.04;60.46;99076.34;341440;28;1945;-78
2023/06/10 00:59:59;;;;;;;7.13;6.03;;;;;;;19.06;60.32;99074.44;343529;28;1064;-78
2023/06/10 01:00:13;;;;;;;8.00;6.05;;;;;;;19.04;60.94;99084.25;344143;28;1347;-78
2023/06/10 01:00:25;;;;;;;8.40;6.30;;;;;;;19.03;60.95;99077.28;344641;28;1107;-78
2023/06/10 01:00:37;;;;;;;7.22;6.35;;;;;;;19.06;60.42;99081.50;344762;28;1804;-78
2023/06/10 01:00:50;;;;;;;7.68;6.40;;;;;;;19.07;60.03;99076.09;344979;28;1958;-78
2023/06/10 01:01:03;;;;;;;8.02;6.55;;;;;;;19.06;60.01;99074.44;344608;28;1613;-78
2023/06/10 01:01:16;;;;;;;8.02;6.57;;;;;;;19.10;59.90;99072.41;344917;28;1069;-78
2023/06/10 01:01:29;;;;;;;7.95;6.40;;;;;;;19.10;59.99;99078.50;344853;28;1149;-78